Time;durP1;ratioP1;P1;durP2;ratioP2;P2;SDS_P1;SDS_P2;PMS_P1;PMS_P2;Temp;Humidity;BMP_temperature;BMP_pressure;BME280_temperature;BME280_humidity;BME280_pressure;Samples;Min_cycle;Max_cycle;Signal;HPM_P1;HPM_P2
2022/08/12 00:44:36;;;;;;;2.13;1.92;;;;;;;24.17;68.10;99688.47;5008499;28;20079;-83
2022/08/12 00:47:02;;;;;;;2.90;2.65;;;;;;;23.88;68.04;99649.19;5007544;28;20045;-81
2022/08/12 00:49:29;;;;;;;3.53;2.00;;;;;;;23.99;67.68;99667.28;5039388;28;20049;-80
2022/08/12 00:52:10;;;;;;;4.32;2.45;;;;;;;24.05;67.21;99679.41;5007677;28;20041;-80
2022/08/12 00:55:03;;;;;;;1.45;1.27;;;;;;;23.99;65.76;99694.22;5008366;28;20034;-84
2022/08/12 00:57:35;;;;;;;0.75;0.75;;;;;;;23.47;65.16;99633.22;5006662;28;20050;-81
2022/08/12 01:00:11;;;;;;;0.68;0.68;;;;;;;23.86;65.09;99696.88;5007247;28;20429;-81
2022/08/12 01:02:40;;;;;;;1.55;1.45;;;;;;;23.86;64.34;99674.50;5027178;28;20033;-81
2022/08/12 01:13:28;;;;;;;2.47;1.63;;;;;;;23.60;64.08;99661.84;5026646;28;20525;-81
2022/08/12 01:15:56;;;;;;;1.23;1.13;;;;;;;23.54;64.12;99656.91;5026057;28;20426;-81
2022/08/12 01:18:27;;;;;;;0.57;0.50;;;;;;;23.44;64.87;99674.66;5026163;28;20041;-82
2022/08/12 01:20:52;;;;;;;1.27;1.02;;;;;;;23.54;65.08;99699.97;5007025;28;20038;-81
2022/08/12 01:23:33;;;;;;;2.30;1.88;;;;;;;23.57;64.58;99693.50;5007046;28;20515;-81
2022/08/12 01:26:02;;;;;;;1.73;1.60;;;;;;;23.26;65.71;99657.06;5006846;28;20076;-81
2022/08/12 01:28:30;;;;;;;2.67;1.80;;;;;;;23.32;65.52;99651.28;5007282;28;20041;-80
2022/08/12 01:30:59;;;;;;;1.92;1.77;;;;;;;23.44;65.60;99663.88;5006977;28;20034;-81
2022/08/12 01:33:30;;;;;;;2.38;2.00;;;;;;;23.51;66.69;99692.13;5007049;28;20537;-80
2022/08/12 01:36:01;;;;;;;1.02;0.93;;;;;;;23.14;67.69;99638.13;5018153;28;20025;-80
2022/08/12 01:38:30;;;;;;;4.07;2.60;;;;;;;23.27;67.83;99670.41;5012944;28;20099;-82
2022/08/12 01:41:00;;;;;;;2.63;2.22;;;;;;;23.12;68.59;99674.16;5019486;28;20048;-82
2022/08/12 01:43:26;;;;;;;2.00;1.80;;;;;;;23.02;68.96;99669.38;5007518;28;20120;-81
2022/08/12 01:46:29;;;;;;;5.97;3.35;;;;;;;23.28;68.06;99669.47;5006645;28;20104;-82
2022/08/12 01:48:55;;;;;;;2.60;2.38;;;;;;;23.17;68.37;99669.31;5018823;28;20515;-81
2022/08/12 01:51:41;;;;;;;1.58;1.48;;;;;;;23.13;68.75;99681.28;5022729;28;20049;-81
2022/08/12 01:54:17;;;;;;;2.60;2.22;;;;;;;22.80;69.68;99644.84;5010762;28;20026;-81
2022/08/12 01:56:54;;;;;;;3.17;2.50;;;;;;;22.86;69.75;99665.97;5028653;28;20041;-82
2022/08/12 01:59:46;;;;;;;6.22;3.08;;;;;;;23.05;69.45;99673.69;5029478;28;20042;-82
2022/08/12 02:02:32;;;;;;;3.80;3.45;;;;;;;22.98;69.23;99664.28;5016148;28;20053;-82
2022/08/12 02:11:23;;;;;;;9.07;2.10;;;;;;;22.92;69.47;99670.09;5014287;28;20049;-80
2022/08/12 02:14:24;;;;;;;3.25;2.80;;;;;;;22.84;69.73;99679.50;5010236;28;20026;-80
2022/08/12 02:17:13;;;;;;;2.85;2.42;;;;;;;22.72;69.69;99672.25;5003046;28;20153;-81
2022/08/12 02:20:20;;;;;;;1.90;1.67;;;;;;;22.65;69.37;99673.63;5009673;28;20081;-80
2022/08/12 02:22:49;;;;;;;1.08;1.00;;;;;;;22.44;68.94;99652.56;5010339;28;20037;-80
2022/08/12 02:25:36;;;;;;;0.45;0.45;;;;;;;22.37;69.55;99678.13;5010374;28;20416;-81
2022/08/12 02:28:02;;;;;;;2.28;1.85;;;;;;;21.93;69.89;99620.84;5022206;28;20032;-81
2022/08/12 02:30:30;;;;;;;1.30;1.20;;;;;;;21.97;69.51;99626.91;5029786;28;20037;-80
2022/08/12 02:32:58;;;;;;;1.95;1.67;;;;;;;21.94;69.67;99640.53;5029820;28;20045;-81
2022/08/12 02:35:26;;;;;;;1.55;1.42;;;;;;;21.91;70.09;99673.78;5022317;28;20029;-82
2022/08/12 02:37:55;;;;;;;14.25;1.85;;;;;;;21.78;70.68;99672.81;5029829;28;20096;-80
2022/08/12 02:40:23;;;;;;;0.70;0.70;;;;;;;21.92;70.26;99664.78;5029325;28;20036;-81
2022/08/12 02:43:04;;;;;;;2.25;1.45;;;;;;;22.05;69.51;99674.75;5013565;28;20030;-81
2022/08/12 02:45:44;;;;;;;3.67;0.95;;;;;;;21.73;69.62;99626.63;5010138;28;20061;-80
2022/08/12 02:48:16;;;;;;;0.35;0.35;;;;;;;21.91;70.07;99673.78;5027419;28;20137;-80
2022/08/12 02:50:48;;;;;;;1.02;0.95;;;;;;;21.91;69.56;99670.25;5010395;28;20029;-81
2022/08/12 02:53:15;;;;;;;1.23;1.13;;;;;;;21.51;70.05;99632.47;5009855;28;20034;-81
2022/08/12 02:55:41;;;;;;;3.45;0.98;;;;;;;21.60;70.35;99643.47;5020188;28;20530;-81
2022/08/12 02:58:09;;;;;;;8.20;1.20;;;;;;;21.82;70.41;99683.28;5014940;28;20065;-82
2022/08/12 03:00:38;;;;;;;1.60;1.50;;;;;;;21.93;69.94;99679.91;5009816;28;20030;-81
2022/08/12 03:03:07;;;;;;;2.72;1.70;;;;;;;21.63;69.67;99648.66;5009271;28;20048;-82
2022/08/12 03:05:43;;;;;;;1.10;1.10;;;;;;;21.77;69.93;99674.66;5009299;28;20484;-82
2022/08/12 03:08:12;;;;;;;2.42;1.83;;;;;;;21.70;69.75;99637.53;5021792;28;20034;-83
2022/08/12 03:10:41;;;;;;;1.45;1.10;;;;;;;21.72;70.75;99683.94;5028498;28;20037;-81
2022/08/12 03:13:07;;;;;;;3.53;1.75;;;;;;;21.23;72.68;99655.56;5028863;28;20033;-81
2022/08/12 03:15:34;;;;;;;3.42;2.25;;;;;;;21.37;72.08;99647.53;5019115;28;20056;-81
2022/08/12 03:18:15;;;;;;;2.00;1.58;;;;;;;21.54;71.34;99651.91;5009090;28;20432;-81
2022/08/12 03:20:41;;;;;;;3.30;1.92;;;;;;;21.70;71.66;99686.72;5010515;28;20031;-81
2022/08/12 03:23:13;;;;;;;2.67;1.52;;;;;;;21.58;71.10;99653.47;5009669;28;20038;-79
2022/08/12 03:25:41;;;;;;;2.60;1.25;;;;;;;21.50;71.37;99636.09;5023909;28;20569;-81
2022/08/12 03:28:12;;;;;;;1.58;1.48;;;;;;;21.46;71.64;99665.75;5015775;28;20504;-81
2022/08/12 03:30:41;;;;;;;1.60;1.50;;;;;;;21.37;72.29;99662.78;5010455;28;20021;-80
2022/08/12 03:33:11;;;;;;;0.73;0.73;;;;;;;21.33;72.83;99669.28;5013027;28;20034;-79
2022/08/12 03:35:41;;;;;;;1.83;1.73;;;;;;;21.37;72.54;99657.41;5008345;28;20046;-80
2022/08/12 03:38:10;;;;;;;6.20;3.15;;;;;;;21.44;73.24;99691.84;5008690;28;20037;-79
2022/08/12 04:00:22;;;;;;;1.83;0.80;;;;;;;21.11;73.40;99689.31;5007747;28;20048;-83
2022/08/12 04:02:54;;;;;;;1.33;1.23;;;;;;;21.33;72.67;99701.47;5040936;28;20040;-85
2022/08/12 04:05:20;;;;;;;1.88;1.77;;;;;;;21.35;71.78;99662.88;5012260;28;20049;-87
2022/08/12 04:07:46;;;;;;;3.45;2.47;;;;;;;21.59;70.76;99675.78;5016251;28;20029;-86
2022/08/12 04:10:13;;;;;;;0.40;0.40;;;;;;;21.99;69.83;99716.28;5028016;28;20033;-88
2022/08/12 04:15:27;;;;;;;2.23;2.00;;;;;;;21.84;70.09;99685.00;5026908;28;20107;-88
2022/08/12 04:17:53;;;;;;;4.45;1.10;;;;;;;21.88;69.45;99663.25;5027697;28;20280;-84
2022/08/12 04:20:20;;;;;;;1.98;1.83;;;;;;;22.12;69.39;99692.19;5020123;28;20113;-85
2022/08/12 04:22:46;;;;;;;1.48;1.20;;;;;;;22.12;70.44;99701.13;5022491;28;20033;-83
2022/08/12 04:25:12;;;;;;;1.17;1.10;;;;;;;22.29;69.82;99691.13;5012924;28;20380;-84
2022/08/12 04:27:42;;;;;;;5.65;2.10;;;;;;;22.22;70.61;99696.03;5009067;28;20544;-84
2022/08/12 04:30:09;;;;;;;1.85;1.67;;;;;;;22.60;69.47;99713.38;5019517;28;20036;-83
2022/08/12 04:32:35;;;;;;;3.60;2.83;;;;;;;22.35;69.24;99688.97;5027717;28;20419;-85
2022/08/12 04:35:02;;;;;;;5.68;2.40;;;;;;;22.50;69.34;99683.56;5018288;28;20034;-85
2022/08/12 04:37:28;;;;;;;1.83;1.45;;;;;;;22.89;68.53;99715.06;5025441;28;20033;-88
2022/08/12 04:39:54;;;;;;;2.65;1.88;;;;;;;23.02;67.86;99720.47;5016242;28;20030;-86
2022/08/12 04:42:21;;;;;;;1.45;1.30;;;;;;;22.94;68.00;99690.53;5009216;28;20041;-83
2022/08/12 04:44:47;;;;;;;1.98;1.88;;;;;;;23.34;67.32;99720.19;5012218;28;20042;-85
2022/08/12 04:47:15;;;;;;;1.00;0.88;;;;;;;23.41;65.35;99688.31;5009949;28;20110;-84
2022/08/12 04:49:43;;;;;;;1.25;1.10;;;;;;;23.30;65.79;99655.91;5010158;28;20037;-86
2022/08/12 04:52:09;;;;;;;4.43;1.13;;;;;;;23.67;64.71;99689.22;5023041;28;20110;-85
2022/08/12 04:54:35;;;;;;;1.58;1.48;;;;;;;23.95;65.14;99714.25;5024051;28;20557;-84
2022/08/12 04:57:01;;;;;;;1.92;1.83;;;;;;;24.09;64.01;99706.03;5026549;28;20033;-80
2022/08/12 04:59:26;;;;;;;3.97;1.40;;;;;;;24.47;62.51;99699.72;5027161;28;20087;-83
2022/08/12 05:01:52;;;;;;;1.35;1.25;;;;;;;24.63;61.55;99709.41;5026719;28;20030;-81
2022/08/12 05:04:20;;;;;;;1.83;1.30;;;;;;;24.35;61.06;99679.06;5026718;28;20045;-81
2022/08/12 05:06:47;;;;;;;1.98;1.77;;;;;;;24.77;61.28;99708.41;5025577;28;20492;-81
2022/08/12 05:09:14;;;;;;;3.05;1.77;;;;;;;24.82;60.58;99693.63;5023596;28;20033;-81
2022/08/12 05:11:40;;;;;;;3.67;1.63;;;;;;;24.88;61.51;99718.41;5017905;28;20040;-80
2022/08/12 05:14:05;;;;;;;0.90;0.77;;;;;;;25.12;58.41;99727.34;5015585;28;20033;-81
2022/08/12 05:16:31;;;;;;;1.80;1.20;;;;;;;24.91;58.55;99689.34;5006855;28;20034;-80
2022/08/12 05:18:57;;;;;;;1.45;1.05;;;;;;;24.91;59.09;99694.75;5020679;28;20055;-81
2022/08/12 05:21:23;;;;;;;2.65;2.28;;;;;;;24.95;58.26;99708.88;5006018;28;20029;-84
2022/08/12 05:23:49;;;;;;;1.33;1.17;;;;;;;25.01;57.93;99722.75;5014172;28;20041;-83
2022/08/12 05:26:14;;;;;;;0.52;0.52;;;;;;;25.25;57.59;99729.97;5023527;28;20095;-81
2022/08/12 05:28:40;;;;;;;1.95;1.77;;;;;;;25.11;56.71;99701.34;5012501;28;20033;-82
2022/08/12 05:31:06;;;;;;;2.05;1.02;;;;;;;24.95;57.37;99720.53;5024761;28;20026;-80
2022/08/12 05:33:39;;;;;;;4.57;2.40;;;;;;;25.32;56.78;99723.19;5018227;28;20037;-80
2022/08/12 05:36:12;;;;;;;0.60;0.60;;;;;;;25.02;57.71;99724.50;5024989;28;20553;-80
2022/08/12 05:38:56;;;;;;;1.23;1.13;;;;;;;25.13;57.85;99734.50;5024692;28;20045;-80
2022/08/12 05:41:25;;;;;;;0.77;0.77;;;;;;;25.61;56.35;99716.50;5020192;28;20091;-80
2022/08/12 05:43:54;;;;;;;0.95;0.93;;;;;;;25.64;56.91;99732.47;5010583;28;20307;-81
2022/08/12 05:46:20;;;;;;;0.28;0.28;;;;;;;25.73;55.56;99715.56;5019836;28;20080;-81
2022/08/12 05:48:48;;;;;;;3.17;1.95;;;;;;;26.01;55.57;99740.44;5012000;28;20073;-80
2022/08/12 05:51:14;;;;;;;2.45;2.22;;;;;;;26.04;56.28;99729.41;5021652;28;20527;-81
2022/08/12 05:53:40;;;;;;;1.75;1.65;;;;;;;25.74;56.12;99685.72;5017634;28;20867;-81
2022/08/12 05:56:17;;;;;;;4.07;3.20;;;;;;;26.05;55.73;99704.09;5006490;28;20038;-82
2022/08/12 05:58:42;;;;;;;2.97;1.38;;;;;;;26.21;54.96;99706.44;5016639;28;20041;-82
2022/08/12 06:01:08;;;;;;;1.23;1.13;;;;;;;26.43;54.61;99725.34;5006427;28;20042;-81
2022/08/12 06:03:33;;;;;;;1.35;1.10;;;;;;;26.82;53.74;99726.78;5024469;28;20057;-81
2022/08/12 06:05:59;;;;;;;2.25;1.95;;;;;;;26.50;54.00;99719.44;5021106;28;20111;-84
2022/08/12 06:08:24;;;;;;;2.08;1.83;;;;;;;26.38;54.14;99729.41;5018228;28;20041;-83
2022/08/12 06:10:50;;;;;;;3.25;2.95;;;;;;;26.61;53.42;99741.91;5024937;28;20033;-83
2022/08/12 06:13:17;;;;;;;1.27;1.17;;;;;;;26.55;53.83;99725.34;5023603;28;20037;-80
2022/08/12 06:15:42;;;;;;;1.27;1.17;;;;;;;26.52;51.80;99736.41;5006151;28;20042;-83
2022/08/12 06:18:10;;;;;;;1.55;1.25;;;;;;;26.89;51.22;99723.44;5018958;28;20495;-81
2022/08/12 06:20:38;;;;;;;0.77;0.77;;;;;;;26.97;50.29;99720.97;5006441;28;20057;-81
2022/08/12 06:23:04;;;;;;;1.98;1.73;;;;;;;27.10;50.43;99737.06;5006265;28;20084;-82
2022/08/12 06:25:30;;;;;;;1.15;1.05;;;;;;;27.47;49.37;99697.91;5006610;28;20069;-84
2022/08/12 06:27:57;;;;;;;1.83;1.02;;;;;;;27.61;50.43;99715.69;5006587;28;20030;-80
2022/08/12 06:30:24;;;;;;;1.20;1.13;;;;;;;28.21;47.92;99696.94;5006474;28;20033;-80
2022/08/12 06:32:51;;;;;;;2.45;1.35;;;;;;;27.99;46.83;99712.41;5005409;28;20038;-81
2022/08/12 06:35:18;;;;;;;1.13;0.93;;;;;;;27.99;47.13;99696.13;5006796;28;20030;-80
2022/08/12 06:37:47;;;;;;;1.70;0.85;;;;;;;28.17;47.10;99681.94;5009537;28;20480;-82
2022/08/12 06:40:14;;;;;;;2.13;1.55;;;;;;;28.87;45.09;99709.13;5010084;28;20042;-82
2022/08/12 06:42:50;;;;;;;4.07;2.58;;;;;;;28.73;45.91;99691.41;5010076;28;20037;-83
2022/08/12 06:45:22;;;;;;;1.85;1.08;;;;;;;29.05;43.39;99682.16;5010057;28;20078;-81
2022/08/12 06:47:47;;;;;;;3.70;2.00;;;;;;;29.49;43.24;99714.34;5010237;28;20083;-81
2022/08/12 06:50:15;;;;;;;1.90;1.60;;;;;;;29.26;43.13;99690.22;5009928;28;20038;-84
2022/08/12 06:52:44;;;;;;;3.30;1.33;;;;;;;29.93;41.58;99721.00;5009978;28;20467;-81
2022/08/12 06:55:19;;;;;;;1.83;1.27;;;;;;;30.28;41.20;99696.88;5041725;28;20556;-82
2022/08/12 06:58:15;;;;;;;0.68;0.57;;;;;;;30.73;39.77;99709.69;5010053;28;20037;-82
2022/08/12 07:00:42;;;;;;;1.13;0.55;;;;;;;30.61;39.62;99691.84;5007781;28;20424;-83
2022/08/12 07:03:09;;;;;;;1.17;0.93;;;;;;;30.99;38.86;99687.19;5008651;28;20057;-81
2022/08/12 07:05:34;;;;;;;0.93;0.85;;;;;;;30.76;38.89;99681.31;5009485;28;20032;-82
2022/08/12 07:08:04;;;;;;;0.85;0.85;;;;;;;30.85;38.65;99700.28;5009532;28;20030;-84
2022/08/12 07:10:32;;;;;;;1.40;1.30;;;;;;;30.89;38.79;99669.03;5009681;28;20112;-79
2022/08/12 07:13:02;;;;;;;0.73;0.50;;;;;;;31.77;35.22;99690.03;5009578;28;20041;-80
2022/08/12 07:15:29;;;;;;;0.70;0.68;;;;;;;31.87;35.80;99672.72;5009835;28;20026;-79
2022/08/12 07:18:05;;;;;;;1.23;1.13;;;;;;;32.01;35.62;99682.19;5009795;28;20034;-78
2022/08/12 07:20:35;;;;;;;1.63;1.52;;;;;;;32.06;34.13;99677.13;5008012;28;20091;-79
2022/08/12 07:23:04;;;;;;;4.72;1.95;;;;;;;32.12;34.20;99657.41;5009759;28;20123;-77
2022/08/12 07:25:31;;;;;;;2.10;1.38;;;;;;;32.20;34.25;99679.25;5009215;28;20547;-80
2022/08/12 07:28:00;;;;;;;2.35;2.15;;;;;;;32.37;33.47;99690.25;5009166;28;20137;-79
2022/08/12 07:30:27;;;;;;;1.27;0.95;;;;;;;32.79;33.15;99675.72;5009290;28;20128;-79
2022/08/12 07:32:53;;;;;;;2.72;1.42;;;;;;;32.30;33.97;99654.56;5008863;28;20100;-80
2022/08/12 07:35:19;;;;;;;0.80;0.43;;;;;;;32.87;32.28;99666.69;5009227;28;20048;-79
2022/08/12 07:37:49;;;;;;;0.43;0.43;;;;;;;32.48;32.32;99644.38;5009485;28;20088;-81
2022/08/12 07:40:15;;;;;;;1.45;1.13;;;;;;;32.39;32.43;99653.56;5008864;28;20140;-79
2022/08/12 07:42:42;;;;;;;0.80;0.65;;;;;;;32.78;32.50;99663.09;5008944;28;20037;-79
2022/08/12 07:45:08;;;;;;;1.27;1.17;;;;;;;32.78;34.19;99630.31;5008756;28;20046;-79
2022/08/12 07:47:34;;;;;;;1.05;0.65;;;;;;;32.62;33.31;99642.88;5008693;28;20049;-83
2022/08/12 07:50:01;;;;;;;0.80;0.80;;;;;;;32.72;31.50;99617.34;5008284;28;20527;-79
2022/08/12 07:52:27;;;;;;;1.38;1.15;;;;;;;32.37;32.67;99641.97;5008318;28;20034;-82
2022/08/12 07:54:53;;;;;;;1.50;1.10;;;;;;;32.92;32.24;99648.78;5008864;28;20118;-82
2022/08/12 07:57:19;;;;;;;0.95;0.90;;;;;;;33.46;32.81;99652.91;5008665;28;20560;-79
2022/08/12 07:59:45;;;;;;;1.55;1.10;;;;;;;33.59;31.43;99644.19;5008540;28;20390;-78
2022/08/12 08:02:11;;;;;;;2.20;0.95;;;;;;;33.55;30.13;99627.25;5008464;28;20109;-80
2022/08/12 08:04:56;;;;;;;0.88;0.68;;;;;;;33.27;29.92;99654.13;5008880;28;20080;-79
2022/08/12 08:07:24;;;;;;;1.70;0.85;;;;;;;33.45;30.26;99648.50;5008433;28;20025;-79
2022/08/12 08:09:56;;;;;;;0.65;0.30;;;;;;;33.40;29.44;99646.28;5008180;28;20041;-81
2022/08/12 08:15:07;;;;;;;0.98;0.88;;;;;;;32.51;32.13;99620.53;5008373;28;20744;-83
2022/08/12 08:17:33;;;;;;;1.75;0.88;;;;;;;32.33;31.53;99632.41;5008541;28;20034;-79
2022/08/12 08:19:58;;;;;;;1.02;0.90;;;;;;;32.67;31.32;99606.91;5008262;28;20045;-78
2022/08/12 08:22:24;;;;;;;1.40;1.20;;;;;;;33.08;31.92;99631.56;5008050;28;20505;-79
2022/08/12 08:24:56;;;;;;;0.98;0.60;;;;;;;33.23;32.58;99625.41;5008168;28;20061;-82
2022/08/12 08:27:23;;;;;;;1.33;1.02;;;;;;;33.86;29.88;99629.28;5008372;28;20034;-78
2022/08/12 08:29:48;;;;;;;0.40;0.22;;;;;;;33.78;27.22;99632.88;5007968;28;20497;-78
2022/08/12 08:32:14;;;;;;;0.25;0.25;;;;;;;33.07;27.92;99618.91;5008072;28;20034;-79
2022/08/12 08:34:40;;;;;;;0.63;0.30;;;;;;;33.67;27.77;99620.41;5007845;28;20152;-79
2022/08/12 08:37:06;;;;;;;0.15;0.15;;;;;;;33.95;27.42;99619.16;5008036;28;20504;-79
2022/08/12 08:39:33;;;;;;;0.30;0.30;;;;;;;33.68;28.28;99602.97;5007691;28;20100;-80
2022/08/12 08:44:43;;;;;;;0.57;0.57;;;;;;;34.35;27.39;99623.63;5007596;28;20075;-80
2022/08/12 08:47:11;;;;;;;0.73;0.40;;;;;;;34.52;26.45;99618.06;5008111;28;20038;-79
2022/08/12 08:49:38;;;;;;;0.68;0.50;;;;;;;34.46;26.33;99605.94;5007933;28;20060;-80
2022/08/12 08:52:06;;;;;;;0.90;0.50;;;;;;;34.47;26.20;99617.78;5007028;28;20610;-80
2022/08/12 08:54:32;;;;;;;1.20;0.95;;;;;;;33.93;26.73;99605.66;5007601;28;20026;-80
2022/08/12 08:57:00;;;;;;;2.00;1.00;;;;;;;33.09;27.70;99605.94;5007819;28;20040;-81
2022/08/12 08:59:27;;;;;;;1.15;0.70;;;;;;;32.94;27.81;99592.09;5007658;28;20030;-79
2022/08/12 09:01:52;;;;;;;0.32;0.30;;;;;;;32.55;29.09;99591.84;5007580;28;20061;-79
2022/08/12 09:04:22;;;;;;;0.68;0.52;;;;;;;32.78;29.06;99611.19;5007283;28;20115;-79
2022/08/12 09:06:49;;;;;;;0.68;0.52;;;;;;;32.63;29.86;99584.53;5038719;28;20030;-80
2022/08/12 09:09:16;;;;;;;0.22;0.22;;;;;;;32.82;29.86;99588.84;5007475;28;20065;-80
2022/08/12 09:14:26;;;;;;;0.80;0.75;;;;;;;32.89;27.94;99555.41;5007563;28;20077;-80
2022/08/12 09:16:52;;;;;;;3.13;0.85;;;;;;;32.83;28.80;99563.25;5008248;28;20381;-80
2022/08/12 09:19:17;;;;;;;241.30;120.57;;;;;;;33.13;27.61;99560.84;5025650;28;20479;-80
2022/08/12 09:21:49;;;;;;;349.88;228.60;;;;;;;33.24;27.85;99573.34;5014305;28;20088;-80
2022/08/12 09:24:21;;;;;;;105.72;66.68;;;;;;;33.63;27.40;99582.66;5007675;28;20022;-80
2022/08/12 09:26:47;;;;;;;492.83;254.05;;;;;;;33.09;28.32;99570.44;5024987;28;20041;-81
2022/08/12 09:29:20;;;;;;;310.00;195.20;;;;;;;32.97;27.97;99575.38;5025088;28;20030;-81
2022/08/12 09:32:12;;;;;;;216.82;108.32;;;;;;;33.19;29.69;99556.59;5026489;28;20033;-80
2022/08/12 09:34:38;;;;;;;76.15;42.63;;;;;;;33.35;30.32;99550.25;5025022;28;20034;-81
2022/08/12 09:46:59;;;;;;;30.67;21.20;;;;;;;32.22;29.66;99559.03;5123404;27;20514;-80
2022/08/12 09:49:25;;;;;;;0.73;0.67;;;;;;;32.81;30.05;99564.44;5122826;27;20451;-80
2022/08/12 09:51:53;;;;;;;20.90;9.35;;;;;;;33.26;29.62;99535.78;5124576;28;20039;-81
2022/08/12 09:54:23;;;;;;;75.32;47.38;;;;;;;34.11;27.72;99567.13;5105934;28;20416;-81
2022/08/12 09:56:52;;;;;;;31.55;22.10;;;;;;;33.32;28.41;99534.19;5124705;28;20028;-79
2022/08/12 09:59:17;;;;;;;26.92;16.63;;;;;;;33.67;29.08;99552.03;5124592;28;20030;-79
2022/08/12 10:01:43;;;;;;;2.42;1.60;;;;;;;33.42;27.54;99558.63;5124612;28;20036;-81
2022/08/12 10:04:09;;;;;;;1.05;0.82;;;;;;;34.03;26.52;99551.59;5125422;28;20474;-82
2022/08/12 10:06:38;;;;;;;2.67;0.95;;;;;;;34.01;27.67;99529.03;5124257;28;20928;-81
2022/08/12 10:09:07;;;;;;;1.17;0.88;;;;;;;34.15;27.49;99537.50;5124042;28;20035;-80
2022/08/12 10:14:18;;;;;;;1.45;1.33;;;;;;;33.35;28.23;99528.38;5125294;28;20038;-80
2022/08/12 10:16:44;;;;;;;0.52;0.52;;;;;;;33.39;28.39;99523.44;5125101;28;20027;-79
2022/08/12 10:19:11;;;;;;;10.63;0.77;;;;;;;33.19;28.20;99519.19;5124455;28;20493;-80
2022/08/12 10:21:40;;;;;;;2.17;1.67;;;;;;;33.18;28.49;99524.81;5124504;27;20027;-80
2022/08/12 10:24:09;;;;;;;1.10;1.00;;;;;;;33.86;26.91;99507.06;5124771;28;20879;-79
2022/08/12 10:32:11;;;;;;;0.38;0.35;;;;;;;34.35;25.66;99499.59;5124721;27;20050;-80
2022/08/12 10:34:38;;;;;;;0.60;0.40;;;;;;;34.16;26.43;99511.84;5124435;28;20400;-79
2022/08/12 10:37:05;;;;;;;3.38;0.65;;;;;;;34.22;26.76;99487.34;5124502;28;20036;-81
2022/08/12 10:39:36;;;;;;;0.38;0.28;;;;;;;33.84;27.74;99494.59;5124107;28;20056;-81
2022/08/12 10:44:59;;;;;;;1.35;0.85;;;;;;;33.33;27.36;99501.22;5124009;28;20073;-80
2022/08/12 10:47:31;;;;;;;2.05;0.90;;;;;;;33.51;28.04;99497.44;5124199;27;20036;-81
2022/08/12 10:49:58;;;;;;;1.77;1.15;;;;;;;33.34;27.24;99481.09;5124039;28;20038;-81
2022/08/12 10:52:29;;;;;;;1.63;1.23;;;;;;;32.83;26.96;99481.31;5123707;27;20035;-80
2022/08/12 10:54:55;;;;;;;1.60;0.75;;;;;;;32.87;27.28;99486.44;5123749;28;20046;-80
2022/08/12 10:57:25;;;;;;;1.45;0.88;;;;;;;32.89;27.63;99460.69;5116346;28;20868;-79
2022/08/12 10:59:54;;;;;;;1.20;0.82;;;;;;;33.10;28.31;99486.59;5109964;28;20114;-80
2022/08/12 11:02:19;;;;;;;0.40;0.40;;;;;;;32.56;30.43;99470.72;5110259;28;20040;-84
2022/08/12 11:04:44;;;;;;;1.05;0.88;;;;;;;32.57;29.62;99473.28;5110022;28;20043;-81
2022/08/12 11:07:12;;;;;;;9.07;1.27;;;;;;;32.74;29.15;99471.44;5109976;28;20386;-81
2022/08/12 11:09:37;;;;;;;0.65;0.65;;;;;;;33.30;27.07;99467.94;5110102;28;20111;-81
2022/08/12 11:12:05;;;;;;;1.05;0.85;;;;;;;33.02;28.01;99468.31;5110117;28;20073;-80
2022/08/12 11:14:36;;;;;;;0.32;0.32;;;;;;;32.87;27.35;99461.88;5091579;28;20090;-80
2022/08/12 11:17:07;;;;;;;1.25;1.10;;;;;;;32.92;27.93;99454.88;5109846;28;20027;-80
2022/08/12 11:19:34;;;;;;;1.00;0.80;;;;;;;32.62;27.70;99451.78;5109792;28;20055;-83
2022/08/12 11:22:00;;;;;;;1.17;1.05;;;;;;;33.04;28.29;99447.13;5109147;28;20691;-81
2022/08/12 11:24:26;;;;;;;3.35;1.55;;;;;;;33.19;27.51;99429.03;5109970;28;20031;-81
2022/08/12 11:26:53;;;;;;;2.53;1.77;;;;;;;33.12;26.89;99441.69;5109592;28;20035;-81
2022/08/12 11:29:21;;;;;;;1.52;1.00;;;;;;;32.88;27.63;99436.28;5109473;28;20523;-81
2022/08/12 11:31:48;;;;;;;1.23;0.80;;;;;;;32.58;28.03;99452.28;5109779;28;20031;-81
2022/08/12 11:34:14;;;;;;;2.13;1.90;;;;;;;32.96;26.50;99425.31;5109306;28;20031;-81
2022/08/12 11:36:55;;;;;;;1.83;1.17;;;;;;;33.07;26.46;99419.47;5109361;28;20057;-80
2022/08/12 11:39:21;;;;;;;0.17;0.17;;;;;;;33.46;26.36;99431.50;5109305;28;20142;-82
2022/08/12 11:41:47;;;;;;;0.55;0.52;;;;;;;33.71;26.69;99419.44;5090575;28;20071;-81
2022/08/12 11:44:13;;;;;;;0.45;0.40;;;;;;;33.56;26.07;99437.59;5109800;28;20059;-81
2022/08/12 11:46:41;;;;;;;1.10;0.77;;;;;;;33.49;27.42;99433.88;5108846;28;20100;-81
2022/08/12 11:49:07;;;;;;;0.45;0.35;;;;;;;33.33;26.96;99402.84;5109215;28;20039;-84
2022/08/12 11:51:34;;;;;;;15.50;0.90;;;;;;;33.43;26.79;99426.38;5109562;28;20035;-81
2022/08/12 11:54:00;;;;;;;0.88;0.65;;;;;;;33.30;26.53;99405.94;5090484;28;20050;-81
2022/08/12 11:56:26;;;;;;;1.75;1.10;;;;;;;33.19;25.80;99403.59;5109480;28;20032;-82
2022/08/12 11:58:52;;;;;;;0.40;0.38;;;;;;;33.04;26.61;99399.84;5109247;28;20036;-82
2022/08/12 12:01:17;;;;;;;0.22;0.22;;;;;;;32.95;27.48;99382.63;5109069;28;20088;-83
2022/08/12 12:03:43;;;;;;;0.63;0.60;;;;;;;33.17;26.06;99428.34;5090252;28;20040;-82
2022/08/12 12:06:08;;;;;;;0.98;0.57;;;;;;;33.10;27.90;99382.75;5108740;28;20020;-82
2022/08/12 12:08:34;;;;;;;1.35;0.55;;;;;;;33.34;26.57;99373.66;5107897;28;20062;-81
2022/08/12 12:11:00;;;;;;;0.45;0.45;;;;;;;33.06;26.59;99375.94;5108701;28;20562;-81
2022/08/12 12:13:26;;;;;;;0.65;0.45;;;;;;;33.16;26.17;99393.81;5108785;28;20036;-81
2022/08/12 12:15:51;;;;;;;1.63;0.77;;;;;;;33.12;26.07;99369.78;5108496;28;20039;-82
2022/08/12 12:18:28;;;;;;;0.70;0.68;;;;;;;33.39;24.89;99381.31;5109067;28;20027;-83
2022/08/12 12:20:57;;;;;;;0.75;0.40;;;;;;;33.62;24.88;99378.63;5108711;28;20023;-84
2022/08/12 12:23:23;;;;;;;1.83;1.38;;;;;;;33.37;25.05;99352.28;5109382;28;20492;-82
2022/08/12 12:25:48;;;;;;;0.40;0.40;;;;;;;33.49;25.89;99351.84;5108568;28;20029;-81
2022/08/12 12:28:15;;;;;;;1.63;0.90;;;;;;;33.79;25.64;99369.31;5108078;28;20104;-82
2022/08/12 12:30:41;;;;;;;1.83;0.45;;;;;;;33.82;26.20;99359.91;5108609;28;20069;-81
2022/08/12 12:33:07;;;;;;;0.35;0.32;;;;;;;34.01;25.41;99358.56;5108562;28;20114;-80
2022/08/12 12:35:34;;;;;;;1.25;1.05;;;;;;;34.04;25.02;99342.63;5108444;28;20024;-80
2022/08/12 12:38:02;;;;;;;0.60;0.60;;;;;;;34.17;24.45;99355.69;5108111;28;20750;-79
2022/08/12 12:40:29;;;;;;;1.35;0.90;;;;;;;33.85;24.81;99359.53;5108368;28;20031;-79
2022/08/12 12:42:54;;;;;;;1.13;1.02;;;;;;;33.78;24.76;99329.31;5108429;28;20116;-80
2022/08/12 12:45:21;;;;;;;1.27;1.15;;;;;;;34.17;25.66;99349.34;5107852;28;20614;-81
2022/08/12 12:47:59;;;;;;;0.75;0.50;;;;;;;34.47;24.17;99353.06;5108119;28;20046;-82
2022/08/12 12:50:28;;;;;;;0.73;0.65;;;;;;;34.09;25.00;99333.84;5107770;28;20504;-79
2022/08/12 12:52:53;;;;;;;0.82;0.60;;;;;;;33.78;25.04;99340.25;5108263;28;20024;-80
2022/08/12 12:55:20;;;;;;;1.80;0.77;;;;;;;33.55;24.62;99319.22;5107257;28;20085;-81
2022/08/12 12:57:46;;;;;;;0.47;0.32;;;;;;;33.75;24.68;99337.88;5107823;28;20496;-80
2022/08/12 13:00:19;;;;;;;1.23;0.63;;;;;;;34.14;25.05;99336.91;5107583;28;20043;-80
2022/08/12 13:02:54;;;;;;;1.10;0.90;;;;;;;33.80;24.29;99313.59;5107941;28;20077;-80
2022/08/12 13:05:20;;;;;;;;;;;;;;;33.87;24.49;99325.47;5108140;28;20131;-81
2022/08/12 13:07:46;;;;;;;1.35;0.65;;;;;;;33.78;24.46;99336.69;5107830;28;19911;-80
2022/08/12 13:10:12;;;;;;;0.85;0.82;;;;;;;33.65;24.16;99335.38;5107909;28;20062;-80
2022/08/12 13:12:38;;;;;;;3.15;1.40;;;;;;;33.69;24.35;99292.09;5105134;28;20128;-81
2022/08/12 13:15:14;;;;;;;1.30;1.23;;;;;;;33.98;24.27;99326.94;5107656;28;20031;-83
2022/08/12 13:17:44;;;;;;;1.02;0.95;;;;;;;34.16;25.52;99314.84;5107604;28;20136;-82
2022/08/12 13:20:12;;;;;;;0.85;0.50;;;;;;;34.08;26.02;99315.75;5107251;28;20030;-79
2022/08/12 13:22:37;;;;;;;0.30;0.30;;;;;;;33.95;25.14;99299.94;5107159;28;20176;-81
2022/08/12 13:25:03;;;;;;;0.73;0.52;;;;;;;33.99;23.96;99317.72;5107053;28;20126;-82
2022/08/12 13:27:40;;;;;;;0.50;0.50;;;;;;;33.55;25.00;99288.25;5107146;28;20115;-80
2022/08/12 13:30:09;;;;;;;1.65;1.35;;;;;;;33.66;24.49;99303.41;5106784;28;20027;-80